Unser Platzwetter:
(um das Bild zu aktualisieren oder bei unvollständig geladenem Bild den Reload-Button des Browsers drücken)

 

 
[Quelle: ADDS]
METAR
ETNN 221620Z 32004KT 9999 FEW060 26/09 Q1024 BLU+ =
AMD ETNN 221515Z 2215/2223 VRB03KT 9999 NSW FEW060 SCT320 CANCEL 1530 BYETGL
TAF
AMD ETNN 221515Z 2215/2223 VRB03KT 9999 NSW FEW060 SCT320 CANCEL 1530 BYETGL =
SR / SS: 04:31 / 18:40 UTC (Vettweiss-Soller 2019-08-22)
 

Hier gibt es ein Wetterdiagramm der letzten 7 Tage.

Hier geht es zu unserer Webcam.

Satelitenbild:

aktuelles Meteosat-Bild von www.wetterzentrale.de